createdAt,value
2022-09-20T00:02:08.342Z,4.35
2022-09-20T00:07:07.421Z,4.88
2022-09-20T00:09:38.480Z,4.30
2022-09-20T00:12:09.509Z,2.70
2022-09-20T00:14:39.346Z,2.75
2022-09-20T00:17:10.173Z,2.85
2022-09-20T00:19:40.369Z,3.85
2022-09-20T00:22:10.354Z,2.63
2022-09-20T00:24:40.287Z,3.30
2022-09-20T00:27:10.237Z,3.28
2022-09-20T00:29:40.031Z,3.80
2022-09-20T00:32:10.218Z,3.35
2022-09-20T00:34:58.326Z,4.10
2022-09-20T00:37:28.538Z,3.25
2022-09-20T00:39:58.604Z,3.78
2022-09-20T00:42:33.028Z,3.80
2022-09-20T00:45:07.737Z,4.05
2022-09-20T00:47:40.528Z,3.63
2022-09-20T00:50:46.517Z,4.05
2022-09-20T00:53:47.884Z,4.13
2022-09-20T00:56:23.649Z,4.00
2022-09-20T00:59:06.753Z,3.97
2022-09-20T01:01:38.248Z,4.05
2022-09-20T01:04:09.837Z,4.25
2022-09-20T01:06:40.416Z,4.35
2022-09-20T01:09:10.226Z,4.28
2022-09-20T01:11:42.227Z,5.75
2022-09-20T01:14:16.779Z,5.72
2022-09-20T01:16:47.190Z,5.15
2022-09-20T01:19:36.961Z,5.30
2022-09-20T01:22:18.821Z,4.55
2022-09-20T01:25:17.489Z,4.68
2022-09-20T01:27:53.127Z,4.43
2022-09-20T01:30:31.826Z,4.22
2022-09-20T01:33:29.980Z,5.10
2022-09-20T01:36:05.350Z,5.00
2022-09-20T01:39:10.647Z,5.28
2022-09-20T01:41:51.908Z,4.05
2022-09-20T01:44:38.104Z,3.13
2022-09-20T01:47:26.804Z,3.13
2022-09-20T01:50:17.861Z,3.60
2022-09-20T01:53:07.366Z,2.97
2022-09-20T01:56:12.816Z,3.22
2022-09-20T01:59:24.531Z,2.92
2022-09-20T02:01:54.958Z,2.85
2022-09-20T02:04:58.483Z,2.90
2022-09-20T02:07:30.890Z,2.47
2022-09-20T02:10:23.524Z,2.20
2022-09-20T02:13:42.854Z,1.83
2022-09-20T02:16:30.769Z,1.60
2022-09-20T02:19:09.511Z,1.52
2022-09-20T02:21:44.989Z,1.60
2022-09-20T02:24:49.219Z,1.42
2022-09-20T02:27:22.056Z,1.55
2022-09-20T02:30:10.674Z,1.45
2022-09-20T02:32:52.198Z,1.50
2022-09-20T02:35:40.318Z,1.65
2022-09-20T02:41:16.965Z,1.40
2022-09-20T02:43:54.511Z,1.77
2022-09-20T02:46:36.230Z,1.75
2022-09-20T02:51:45.768Z,1.90
2022-09-20T02:54:46.225Z,1.80
2022-09-20T02:57:26.689Z,2.10
2022-09-20T03:00:06.688Z,1.70
2022-09-20T03:02:58.534Z,1.90
2022-09-20T03:05:56.451Z,1.58
2022-09-20T03:08:33.831Z,1.70
2022-09-20T03:11:26.595Z,1.60
2022-09-20T03:14:18.928Z,2.03
2022-09-20T03:17:44.586Z,1.88
2022-09-20T03:20:26.708Z,2.13
2022-09-20T03:23:24.324Z,2.40
2022-09-20T03:26:12.596Z,2.10
2022-09-20T03:28:54.741Z,2.35
2022-09-20T03:34:43.518Z,2.35
2022-09-20T03:37:27.609Z,2.30
2022-09-20T03:40:07.464Z,1.83
2022-09-20T03:42:52.985Z,2.20
2022-09-20T03:45:47.636Z,1.75
2022-09-20T03:48:38.584Z,1.73
2022-09-20T03:51:12.091Z,1.88
2022-09-20T03:53:58.042Z,1.88
2022-09-20T03:56:31.174Z,2.03
2022-09-20T03:59:20.442Z,1.65
2022-09-20T04:02:34.770Z,1.65
2022-09-20T04:05:14.463Z,2.08
2022-09-20T04:08:15.221Z,1.70
2022-09-20T04:13:41.356Z,1.27
2022-09-20T04:16:29.179Z,1.50
2022-09-20T04:19:42.338Z,1.65
2022-09-20T04:25:07.162Z,1.40
2022-09-20T04:27:51.772Z,1.17
2022-09-20T04:30:25.389Z,1.48
2022-09-20T04:33:15.095Z,1.13
2022-09-20T04:36:30.528Z,1.42
2022-09-20T04:39:43.823Z,1.50
2022-09-20T04:42:34.872Z,1.35
2022-09-20T04:45:41.912Z,1.17
2022-09-20T04:48:27.459Z,1.20
2022-09-20T04:51:19.244Z,1.20
2022-09-20T04:54:16.802Z,1.40
2022-09-20T04:57:10.594Z,1.30
2022-09-20T05:00:16.183Z,1.48
2022-09-20T05:03:31.795Z,1.50
2022-09-20T05:06:15.494Z,1.20
2022-09-20T05:09:04.145Z,1.20
2022-09-20T05:12:03.643Z,1.15
2022-09-20T05:14:54.762Z,1.00
2022-09-20T05:18:16.600Z,1.55
2022-09-20T05:21:25.962Z,1.77
2022-09-20T05:24:17.655Z,1.38
2022-09-20T05:27:10.583Z,1.27
2022-09-20T05:29:53.749Z,1.42
2022-09-20T05:32:53.016Z,1.35
2022-09-20T05:35:50.952Z,1.38
2022-09-20T05:38:49.030Z,1.15
2022-09-20T05:41:22.103Z,1.25
2022-09-20T05:44:13.855Z,1.35
2022-09-20T05:47:19.346Z,1.48
2022-09-20T05:50:08.016Z,1.33
2022-09-20T05:52:54.377Z,1.40
2022-09-20T05:55:46.933Z,1.02
2022-09-20T05:58:30.212Z,1.10
2022-09-20T06:01:03.438Z,1.02
2022-09-20T06:03:46.717Z,0.93
2022-09-20T06:06:31.809Z,1.10
2022-09-20T06:09:10.972Z,0.80
2022-09-20T06:11:59.401Z,1.00
2022-09-20T06:15:01.171Z,1.10
2022-09-20T06:18:10.102Z,1.30
2022-09-20T06:21:00.340Z,1.00
2022-09-20T06:23:32.401Z,1.20
2022-09-20T06:26:08.880Z,1.02
2022-09-20T06:28:47.320Z,1.13
2022-09-20T06:31:19.038Z,1.55
2022-09-20T06:33:58.950Z,1.30
2022-09-20T06:36:56.207Z,1.63
2022-09-20T06:39:56.076Z,1.38
2022-09-20T06:42:27.475Z,1.30
2022-09-20T06:44:58.512Z,1.25
2022-09-20T06:47:28.252Z,1.48
2022-09-20T06:52:27.628Z,1.85
2022-09-20T06:54:58.276Z,1.50
2022-09-20T06:57:41.380Z,1.48
2022-09-20T07:00:16.849Z,1.40
2022-09-20T07:02:47.829Z,3.13
2022-09-20T07:05:18.693Z,2.25
2022-09-20T07:07:48.864Z,2.65
2022-09-20T07:10:18.576Z,2.90
2022-09-20T07:15:18.081Z,4.13
2022-09-20T07:17:50.063Z,3.75
2022-09-20T07:20:21.744Z,4.15
2022-09-20T07:22:51.951Z,3.53
2022-09-20T07:25:23.016Z,3.22
2022-09-20T07:27:52.927Z,3.28
2022-09-20T07:32:52.616Z,3.55
2022-09-20T07:37:59.176Z,5.13
2022-09-20T07:40:30.124Z,6.00
2022-09-20T07:43:00.460Z,6.03
2022-09-20T07:45:30.785Z,6.20
2022-09-20T07:48:00.719Z,6.32
2022-09-20T07:50:30.462Z,7.15
2022-09-20T07:55:29.272Z,6.97
2022-09-20T08:00:28.075Z,5.93
2022-09-20T08:05:32.917Z,5.53
2022-09-20T08:08:03.294Z,5.60
2022-09-20T08:10:33.875Z,5.65
2022-09-20T08:15:53.791Z,5.75
2022-09-20T08:20:53.419Z,4.78
2022-09-20T08:23:24.257Z,5.15
2022-09-20T08:25:57.863Z,4.82
2022-09-20T08:28:27.925Z,4.90
2022-09-20T08:33:37.580Z,5.35
2022-09-20T08:36:16.238Z,6.10
2022-09-20T08:41:52.197Z,5.28
2022-09-20T08:44:34.982Z,5.10
2022-09-20T08:47:21.190Z,4.93
2022-09-20T08:49:56.690Z,5.82
2022-09-20T08:55:27.203Z,5.25
2022-09-20T08:57:59.540Z,5.60
2022-09-20T09:00:37.670Z,6.35
2022-09-20T09:03:13.262Z,7.75
2022-09-20T09:05:46.087Z,7.00
2022-09-20T09:08:19.436Z,7.60
2022-09-20T09:11:13.820Z,7.32
2022-09-20T09:13:49.579Z,7.13
2022-09-20T09:16:24.677Z,7.90
2022-09-20T09:18:58.793Z,7.25
2022-09-20T09:21:32.830Z,7.10
2022-09-20T09:24:21.725Z,8.25
2022-09-20T09:26:54.002Z,7.60
2022-09-20T09:29:25.051Z,8.48
2022-09-20T09:31:58.110Z,7.25
2022-09-20T09:34:34.536Z,8.25
2022-09-20T09:37:04.674Z,8.15
2022-09-20T09:39:39.147Z,6.55
2022-09-20T09:42:24.675Z,7.50
2022-09-20T09:44:54.603Z,5.95
2022-09-20T09:47:42.803Z,5.50
2022-09-20T09:50:24.999Z,4.40
2022-09-20T09:56:14.009Z,3.08
2022-09-20T09:59:12.082Z,3.13
2022-09-20T10:02:00.993Z,3.42
2022-09-20T10:04:49.866Z,3.03
2022-09-20T10:07:20.322Z,2.35
2022-09-20T10:10:18.544Z,2.80
2022-09-20T10:13:16.030Z,3.50
2022-09-20T10:16:04.042Z,3.63
2022-09-20T10:18:45.609Z,4.63
2022-09-20T10:21:44.631Z,5.47
2022-09-20T10:35:17.504Z,6.75
2022-09-20T10:38:27.375Z,6.15
2022-09-20T10:42:24.004Z,6.07
2022-09-20T10:44:54.077Z,5.35
2022-09-20T10:47:35.793Z,5.38
2022-09-20T10:50:30.289Z,4.97
2022-09-20T10:53:18.950Z,5.10
2022-09-20T10:56:16.844Z,4.72
2022-09-20T10:59:08.158Z,4.90
2022-09-20T11:02:18.701Z,4.63
2022-09-20T11:05:29.747Z,4.30
2022-09-20T11:08:16.153Z,4.32
2022-09-20T11:11:01.636Z,4.15
2022-09-20T11:13:38.427Z,4.90
2022-09-20T11:16:12.287Z,4.05
2022-09-20T11:18:55.277Z,3.95
2022-09-20T11:21:48.778Z,4.38
2022-09-20T11:24:42.636Z,3.75
2022-09-20T11:27:34.156Z,3.20
2022-09-20T11:30:16.288Z,3.60
2022-09-20T11:33:18.286Z,3.05
2022-09-20T11:35:53.003Z,2.47
2022-09-20T11:38:42.065Z,2.50
2022-09-20T11:41:21.020Z,2.00
2022-09-20T11:43:51.986Z,2.63
2022-09-20T11:46:35.538Z,2.03
2022-09-20T11:49:16.872Z,1.70
2022-09-20T11:52:05.112Z,2.13
2022-09-20T11:57:17.836Z,1.90
2022-09-20T12:00:00.766Z,2.00
2022-09-20T12:02:48.579Z,1.23
2022-09-20T12:05:45.911Z,1.70
2022-09-20T12:08:31.190Z,1.70
2022-09-20T12:11:16.153Z,2.15
2022-09-20T12:13:57.243Z,1.40
2022-09-20T12:16:45.835Z,1.48
2022-09-20T12:19:34.130Z,1.40
2022-09-20T12:22:06.625Z,1.50
2022-09-20T12:24:45.188Z,2.30
2022-09-20T12:27:31.678Z,1.30
2022-09-20T12:30:07.483Z,1.50
2022-09-20T12:32:49.592Z,1.20
2022-09-20T12:35:59.022Z,1.23
2022-09-20T12:38:31.553Z,1.30
2022-09-20T12:41:26.049Z,0.98
2022-09-20T12:44:05.437Z,1.35
2022-09-20T12:47:00.815Z,1.13
2022-09-20T12:49:49.071Z,1.35
2022-09-20T12:52:45.132Z,1.55
2022-09-20T12:55:43.140Z,1.52
2022-09-20T12:58:15.199Z,1.48
2022-09-20T13:01:00.393Z,1.60
2022-09-20T13:03:41.951Z,1.20
2022-09-20T13:06:19.240Z,5.15
2022-09-20T13:09:05.488Z,1.13
2022-09-20T13:11:58.017Z,1.30
2022-09-20T13:14:33.999Z,1.23
2022-09-20T13:17:32.941Z,1.17
2022-09-20T13:20:04.328Z,1.55
2022-09-20T13:22:46.550Z,1.40
2022-09-20T13:25:19.073Z,1.52
2022-09-20T13:27:55.614Z,1.60
2022-09-20T13:30:30.446Z,1.33
2022-09-20T13:33:26.660Z,1.27
2022-09-20T13:35:59.817Z,1.73
2022-09-20T13:38:32.948Z,1.50
2022-09-20T13:41:14.568Z,1.40
2022-09-20T13:43:50.547Z,1.17
2022-09-20T13:46:25.553Z,1.50
2022-09-20T13:49:11.641Z,1.33
2022-09-20T13:51:41.936Z,1.60
2022-09-20T13:54:31.889Z,1.52
2022-09-20T13:57:07.941Z,1.40
2022-09-20T13:59:46.671Z,1.90
2022-09-20T14:02:35.779Z,2.33
2022-09-20T14:05:08.430Z,1.90
2022-09-20T14:07:38.524Z,1.90
2022-09-20T14:10:32.820Z,1.50
2022-09-20T14:13:07.609Z,1.70
2022-09-20T14:15:45.294Z,2.05
2022-09-20T14:18:19.913Z,2.28
2022-09-20T14:20:50.406Z,2.30
2022-09-20T14:23:28.425Z,2.28
2022-09-20T14:26:39.605Z,1.88
2022-09-20T14:29:39.844Z,1.50
2022-09-20T14:32:21.893Z,1.80
2022-09-20T14:34:58.291Z,1.40
2022-09-20T14:37:35.408Z,1.30
2022-09-20T14:40:18.721Z,1.48
2022-09-20T14:42:52.243Z,1.48
2022-09-20T14:45:32.871Z,1.73
2022-09-20T14:48:11.622Z,1.60
2022-09-20T14:50:45.068Z,1.45
2022-09-20T14:53:20.607Z,1.80
2022-09-20T14:56:01.409Z,1.52
2022-09-20T14:58:32.304Z,1.98
2022-09-20T15:01:06.690Z,1.80
2022-09-20T15:03:42.160Z,1.45
2022-09-20T15:08:46.362Z,1.40
2022-09-20T15:11:18.335Z,1.25
2022-09-20T15:13:48.537Z,1.42
2022-09-20T15:16:21.582Z,1.38
2022-09-20T15:18:51.496Z,1.27
2022-09-20T15:21:21.347Z,1.23
2022-09-20T15:23:51.164Z,1.45
2022-09-20T15:26:22.608Z,2.47
2022-09-20T15:28:53.112Z,1.65
2022-09-20T15:31:22.870Z,1.50
2022-09-20T15:33:52.662Z,1.63
2022-09-20T15:36:23.345Z,1.67
2022-09-20T15:38:55.803Z,1.75
2022-09-20T15:41:29.196Z,1.30
2022-09-20T15:44:02.745Z,1.80
2022-09-20T15:46:33.418Z,1.50
2022-09-20T15:49:05.891Z,1.50
2022-09-20T15:51:37.182Z,1.70
2022-09-20T15:54:08.881Z,1.55
2022-09-20T15:56:48.830Z,1.83
2022-09-20T15:59:22.749Z,1.70
2022-09-20T16:01:54.143Z,1.67
2022-09-20T16:04:25.437Z,1.40
2022-09-20T16:06:55.896Z,1.63
2022-09-20T16:09:25.900Z,1.35
2022-09-20T16:11:59.877Z,1.23
2022-09-20T16:14:29.855Z,1.25
2022-09-20T16:16:59.654Z,1.58
2022-09-20T16:19:31.739Z,1.50
2022-09-20T16:22:01.998Z,1.60
2022-09-20T16:24:34.323Z,1.73
2022-09-20T16:27:08.138Z,2.00
2022-09-20T16:29:38.698Z,1.50
2022-09-20T16:32:08.349Z,4.57
2022-09-20T16:34:38.466Z,1.80
2022-09-20T16:37:18.019Z,2.05
2022-09-20T16:39:48.219Z,1.67
2022-09-20T16:42:18.178Z,1.92
2022-09-20T16:44:48.553Z,2.15
2022-09-20T16:47:26.380Z,2.60
2022-09-20T16:49:57.464Z,2.10
2022-09-20T16:52:27.566Z,2.00
2022-09-20T16:54:57.293Z,2.25
2022-09-20T16:57:27.884Z,1.83
2022-09-20T16:59:58.969Z,1.73
2022-09-20T17:02:28.830Z,1.90
2022-09-20T17:04:58.555Z,1.80
2022-09-20T17:07:28.543Z,3.70
2022-09-20T17:10:02.360Z,3.80
2022-09-20T17:12:35.812Z,2.95
2022-09-20T17:15:07.345Z,2.00
2022-09-20T17:17:37.558Z,2.30
2022-09-20T17:20:08.894Z,6.30
2022-09-20T17:22:39.028Z,2.25
2022-09-20T17:25:09.499Z,2.13
2022-09-20T17:27:40.367Z,2.28
2022-09-20T17:30:11.378Z,4.00
2022-09-20T17:32:41.082Z,2.28
2022-09-20T17:35:11.039Z,1.88
2022-09-20T17:37:41.975Z,2.33
2022-09-20T17:40:12.446Z,1.80
2022-09-20T17:42:44.950Z,2.38
2022-09-20T17:45:15.900Z,3.15
2022-09-20T17:47:45.863Z,35.50
2022-09-20T17:50:16.383Z,22.35
2022-09-20T17:52:47.454Z,24.00
2022-09-20T17:55:18.257Z,2.22
2022-09-20T17:57:48.982Z,2.50
2022-09-20T18:00:19.076Z,2.17
2022-09-20T18:02:48.831Z,2.08
2022-09-20T18:05:18.791Z,2.55
2022-09-20T18:07:48.458Z,3.35
2022-09-20T18:10:19.348Z,2.92
2022-09-20T18:12:49.230Z,2.90
2022-09-20T18:15:18.955Z,3.08
2022-09-20T18:17:53.833Z,4.53
2022-09-20T18:20:24.772Z,3.05
2022-09-20T18:22:54.487Z,18.40
2022-09-20T18:25:25.191Z,4.35
2022-09-20T18:27:56.988Z,4.28
2022-09-20T18:30:27.230Z,4.10
2022-09-20T18:32:56.962Z,20.23
2022-09-20T18:35:26.641Z,4.57
2022-09-20T18:37:56.539Z,3.75
2022-09-20T18:40:26.317Z,4.25
2022-09-20T18:43:04.270Z,4.43
2022-09-20T18:45:35.855Z,4.13
2022-09-20T18:48:05.578Z,4.05
2022-09-20T18:50:35.369Z,3.20
2022-09-20T18:53:05.210Z,3.78
2022-09-20T18:55:35.592Z,3.40
2022-09-20T18:58:05.592Z,3.15
2022-09-20T19:00:35.501Z,3.10
2022-09-20T19:03:19.442Z,3.50
2022-09-20T19:05:56.753Z,3.70
2022-09-20T19:08:49.785Z,2.88
2022-09-20T19:11:40.715Z,3.20
2022-09-20T19:14:47.732Z,3.50
2022-09-20T19:17:25.667Z,3.13
2022-09-20T19:20:27.714Z,2.45
2022-09-20T19:23:03.811Z,2.10
2022-09-20T19:25:46.093Z,2.00
2022-09-20T19:28:17.948Z,2.30
2022-09-20T19:30:49.633Z,2.58
2022-09-20T19:33:21.237Z,2.60
2022-09-20T19:35:52.860Z,3.30
2022-09-20T19:38:36.444Z,2.30
2022-09-20T19:41:28.466Z,3.78
2022-09-20T19:44:23.513Z,1.83
2022-09-20T19:47:05.620Z,2.30
2022-09-20T19:49:49.303Z,1.98
2022-09-20T19:52:20.812Z,4.20
2022-09-20T19:54:52.693Z,2.33
2022-09-20T19:57:35.937Z,2.20
2022-09-20T20:00:09.391Z,2.63
2022-09-20T20:02:39.883Z,2.13
2022-09-20T20:05:16.803Z,2.03
2022-09-20T20:07:48.115Z,2.28
2022-09-20T20:10:27.465Z,2.30
2022-09-20T20:12:57.938Z,2.17
2022-09-20T20:16:06.040Z,2.10
2022-09-20T20:18:58.460Z,2.67
2022-09-20T20:21:46.483Z,2.13
2022-09-20T20:24:22.075Z,1.92
2022-09-20T20:26:52.634Z,2.13
2022-09-20T20:29:22.467Z,2.20
2022-09-20T20:31:52.151Z,2.10
2022-09-20T20:34:21.957Z,2.30
2022-09-20T20:36:53.635Z,2.50
2022-09-20T20:39:23.707Z,2.20
2022-09-20T20:41:53.720Z,2.15
2022-09-20T20:44:23.500Z,2.92
2022-09-20T20:46:53.311Z,3.38
2022-09-20T20:49:23.269Z,2.60
2022-09-20T20:51:53.036Z,2.47
2022-09-20T20:54:22.708Z,2.40
2022-09-20T20:56:52.445Z,2.22
2022-09-20T20:59:22.129Z,1.98
2022-09-20T21:01:51.864Z,2.30
2022-09-20T21:04:22.795Z,2.78
2022-09-20T21:06:53.028Z,2.75
2022-09-20T21:09:22.749Z,2.65
2022-09-20T21:11:52.422Z,2.25
2022-09-20T21:14:23.027Z,2.35
2022-09-20T21:16:53.541Z,2.72
2022-09-20T21:19:24.304Z,2.67
2022-09-20T21:21:54.050Z,2.70
2022-09-20T21:24:24.614Z,3.00
2022-09-20T21:26:54.667Z,3.50
2022-09-20T21:29:24.508Z,3.38
2022-09-20T21:31:54.382Z,3.70
2022-09-20T21:34:24.110Z,3.65
2022-09-20T21:36:53.805Z,3.33
2022-09-20T21:39:23.547Z,4.55
2022-09-20T21:41:53.540Z,3.60
2022-09-20T21:44:23.265Z,3.47
2022-09-20T21:46:53.001Z,3.60
2022-09-20T21:49:23.658Z,3.67
2022-09-20T21:51:54.435Z,3.60
2022-09-20T21:54:25.313Z,4.53
2022-09-20T21:56:56.893Z,4.70
2022-09-20T21:59:28.351Z,4.28
2022-09-20T22:01:59.592Z,3.92
2022-09-20T22:04:30.040Z,4.57
2022-09-20T22:07:00.170Z,5.22
2022-09-20T22:09:29.856Z,4.43
2022-09-20T22:14:28.857Z,4.75
2022-09-20T22:17:00.506Z,4.82
2022-09-20T22:19:32.708Z,4.63
2022-09-20T22:22:02.986Z,5.18
2022-09-20T22:24:33.008Z,4.38
2022-09-20T22:27:02.916Z,4.85
2022-09-20T22:29:32.678Z,4.55
2022-09-20T22:32:02.766Z,4.93
2022-09-20T22:34:32.688Z,4.60
2022-09-20T22:37:02.504Z,4.85
2022-09-20T22:39:32.767Z,5.30
2022-09-20T22:42:02.580Z,5.15
2022-09-20T22:44:32.822Z,5.53
2022-09-20T22:47:02.947Z,5.85
2022-09-20T22:49:32.892Z,5.25
2022-09-20T22:52:03.194Z,4.88
2022-09-20T22:54:33.030Z,4.80
2022-09-20T22:57:03.501Z,4.03
2022-09-20T22:59:33.709Z,6.00
2022-09-20T23:02:04.427Z,5.15
2022-09-20T23:04:34.272Z,5.35
2022-09-20T23:07:04.466Z,5.57
2022-09-20T23:09:35.627Z,4.93
2022-09-20T23:12:06.735Z,5.30
2022-09-20T23:14:36.695Z,5.03
2022-09-20T23:17:06.958Z,5.05
2022-09-20T23:19:37.083Z,5.45
2022-09-20T23:22:07.066Z,4.90
2022-09-20T23:24:37.148Z,5.15
2022-09-20T23:27:08.090Z,5.72
2022-09-20T23:29:38.713Z,5.68
2022-09-20T23:32:09.128Z,5.35
2022-09-20T23:34:40.137Z,5.65
2022-09-20T23:37:11.116Z,5.82
2022-09-20T23:39:42.711Z,4.68
2022-09-20T23:42:13.234Z,5.90
2022-09-20T23:44:43.284Z,5.30
2022-09-20T23:47:13.761Z,5.38
2022-09-20T23:49:43.842Z,4.70
2022-09-20T23:52:14.158Z,4.80
2022-09-20T23:54:45.434Z,4.18
2022-09-20T23:57:16.548Z,3.83
2022-09-20T23:59:46.780Z,4.15
